sensor_id;sensor_type;location;lat;lon;timestamp;pressure;altitude;pressure_sealevel;temperature
15607;BMP180;7865;50.918;4.510;2023-08-21T00:02:30;101777.00;;;18.70
15607;BMP180;7865;50.918;4.510;2023-08-21T00:07:32;101779.00;;;18.60
15607;BMP180;7865;50.918;4.510;2023-08-21T00:12:33;101787.00;;;18.60
15607;BMP180;7865;50.918;4.510;2023-08-21T00:17:34;101786.00;;;18.70
15607;BMP180;7865;50.918;4.510;2023-08-21T00:22:36;101787.00;;;18.80
15607;BMP180;7865;50.918;4.510;2023-08-21T00:27:38;101787.00;;;18.90
15607;BMP180;7865;50.918;4.510;2023-08-21T00:32:39;101789.00;;;18.90
15607;BMP180;7865;50.918;4.510;2023-08-21T00:37:41;101790.00;;;19.00
15607;BMP180;7865;50.918;4.510;2023-08-21T00:42:43;101790.00;;;19.00
15607;BMP180;7865;50.918;4.510;2023-08-21T00:47:44;101792.00;;;19.00
15607;BMP180;7865;50.918;4.510;2023-08-21T00:52:46;101779.00;;;19.00
15607;BMP180;7865;50.918;4.510;2023-08-21T00:57:48;101790.00;;;18.90
15607;BMP180;7865;50.918;4.510;2023-08-21T01:02:49;101790.00;;;18.90
15607;BMP180;7865;50.918;4.510;2023-08-21T01:08:00;101770.00;;;18.80
15607;BMP180;7865;50.918;4.510;2023-08-21T01:13:09;101775.00;;;18.70
15607;BMP180;7865;50.918;4.510;2023-08-21T01:18:10;101784.00;;;18.60
15607;BMP180;7865;50.918;4.510;2023-08-21T01:23:38;101782.00;;;18.40
15607;BMP180;7865;50.918;4.510;2023-08-21T01:28:39;101786.00;;;18.30
15607;BMP180;7865;50.918;4.510;2023-08-21T01:33:45;101794.00;;;18.20
15607;BMP180;7865;50.918;4.510;2023-08-21T01:38:47;101792.00;;;18.10
15607;BMP180;7865;50.918;4.510;2023-08-21T01:43:49;101794.00;;;18.20
15607;BMP180;7865;50.918;4.510;2023-08-21T01:48:50;101794.00;;;18.20
15607;BMP180;7865;50.918;4.510;2023-08-21T01:53:51;101804.00;;;18.20
15607;BMP180;7865;50.918;4.510;2023-08-21T01:58:53;101796.00;;;18.20
15607;BMP180;7865;50.918;4.510;2023-08-21T02:03:54;101795.00;;;18.20
15607;BMP180;7865;50.918;4.510;2023-08-21T02:08:56;101786.00;;;18.10
15607;BMP180;7865;50.918;4.510;2023-08-21T02:13:57;101787.00;;;18.00
15607;BMP180;7865;50.918;4.510;2023-08-21T02:18:58;101784.00;;;17.90
15607;BMP180;7865;50.918;4.510;2023-08-21T02:23:59;101781.00;;;17.90
15607;BMP180;7865;50.918;4.510;2023-08-21T02:29:01;101790.00;;;17.80
15607;BMP180;7865;50.918;4.510;2023-08-21T02:34:02;101790.00;;;17.70
15607;BMP180;7865;50.918;4.510;2023-08-21T02:39:04;101788.00;;;17.70
15607;BMP180;7865;50.918;4.510;2023-08-21T02:44:05;101793.00;;;17.60
15607;BMP180;7865;50.918;4.510;2023-08-21T02:49:06;101791.00;;;17.50
15607;BMP180;7865;50.918;4.510;2023-08-21T02:54:08;101792.00;;;17.50
15607;BMP180;7865;50.918;4.510;2023-08-21T02:59:09;101792.00;;;17.50
15607;BMP180;7865;50.918;4.510;2023-08-21T03:04:10;101799.00;;;17.50
15607;BMP180;7865;50.918;4.510;2023-08-21T03:09:12;101799.00;;;17.50
15607;BMP180;7865;50.918;4.510;2023-08-21T03:14:13;101804.00;;;17.50
15607;BMP180;7865;50.918;4.510;2023-08-21T03:19:15;101797.00;;;17.40
15607;BMP180;7865;50.918;4.510;2023-08-21T03:24:16;101797.00;;;17.40
15607;BMP180;7865;50.918;4.510;2023-08-21T03:29:17;101786.00;;;17.30
15607;BMP180;7865;50.918;4.510;2023-08-21T03:34:18;101785.00;;;17.30
15607;BMP180;7865;50.918;4.510;2023-08-21T03:39:21;101781.00;;;17.20
15607;BMP180;7865;50.918;4.510;2023-08-21T03:44:23;101789.00;;;17.10
15607;BMP180;7865;50.918;4.510;2023-08-21T03:49:24;101789.00;;;17.00
15607;BMP180;7865;50.918;4.510;2023-08-21T03:54:25;101777.00;;;17.00
15607;BMP180;7865;50.918;4.510;2023-08-21T03:59:28;101785.00;;;16.90
15607;BMP180;7865;50.918;4.510;2023-08-21T04:04:30;101776.00;;;17.00
15607;BMP180;7865;50.918;4.510;2023-08-21T04:09:31;101784.00;;;16.90
15607;BMP180;7865;50.918;4.510;2023-08-21T04:14:32;101788.00;;;16.90
15607;BMP180;7865;50.918;4.510;2023-08-21T04:19:34;101789.00;;;16.90
15607;BMP180;7865;50.918;4.510;2023-08-21T04:24:36;101794.00;;;16.80
15607;BMP180;7865;50.918;4.510;2023-08-21T04:29:38;101792.00;;;16.80
15607;BMP180;7865;50.918;4.510;2023-08-21T04:34:40;101800.00;;;16.70
15607;BMP180;7865;50.918;4.510;2023-08-21T04:39:41;101795.00;;;16.70
15607;BMP180;7865;50.918;4.510;2023-08-21T04:44:44;101800.00;;;16.70
15607;BMP180;7865;50.918;4.510;2023-08-21T04:49:47;101808.00;;;16.70
15607;BMP180;7865;50.918;4.510;2023-08-21T04:54:49;101812.00;;;16.80
15607;BMP180;7865;50.918;4.510;2023-08-21T04:59:50;101810.00;;;16.80
15607;BMP180;7865;50.918;4.510;2023-08-21T05:04:54;101805.00;;;16.90
15607;BMP180;7865;50.918;4.510;2023-08-21T05:09:59;101798.00;;;17.00
15607;BMP180;7865;50.918;4.510;2023-08-21T05:15:04;101791.00;;;17.10
15607;BMP180;7865;50.918;4.510;2023-08-21T05:20:06;101806.00;;;17.20
15607;BMP180;7865;50.918;4.510;2023-08-21T05:25:07;101806.00;;;17.40
15607;BMP180;7865;50.918;4.510;2023-08-21T05:30:10;101809.00;;;17.50
15607;BMP180;7865;50.918;4.510;2023-08-21T05:35:13;101809.00;;;17.70
15607;BMP180;7865;50.918;4.510;2023-08-21T05:40:15;101812.00;;;17.90
15607;BMP180;7865;50.918;4.510;2023-08-21T05:45:17;101814.00;;;18.00
15607;BMP180;7865;50.918;4.510;2023-08-21T05:50:19;101828.00;;;18.30
15607;BMP180;7865;50.918;4.510;2023-08-21T05:55:20;101819.00;;;18.50
15607;BMP180;7865;50.918;4.510;2023-08-21T06:00:22;101824.00;;;18.80
15607;BMP180;7865;50.918;4.510;2023-08-21T06:05:23;101832.00;;;19.20
15607;BMP180;7865;50.918;4.510;2023-08-21T06:10:27;101830.00;;;19.50
15607;BMP180;7865;50.918;4.510;2023-08-21T06:15:28;101831.00;;;19.90
15607;BMP180;7865;50.918;4.510;2023-08-21T06:20:30;101830.00;;;20.30
15607;BMP180;7865;50.918;4.510;2023-08-21T06:25:32;101824.00;;;20.80
15607;BMP180;7865;50.918;4.510;2023-08-21T06:30:34;101822.00;;;21.20
15607;BMP180;7865;50.918;4.510;2023-08-21T06:35:36;101823.00;;;21.60
15607;BMP180;7865;50.918;4.510;2023-08-21T06:40:38;101821.00;;;21.80
15607;BMP180;7865;50.918;4.510;2023-08-21T06:45:40;101814.00;;;21.90
15607;BMP180;7865;50.918;4.510;2023-08-21T06:50:42;101822.00;;;21.70
15607;BMP180;7865;50.918;4.510;2023-08-21T06:55:46;101813.00;;;21.80
15607;BMP180;7865;50.918;4.510;2023-08-21T07:00:48;101823.00;;;22.00
15607;BMP180;7865;50.918;4.510;2023-08-21T07:05:58;101829.00;;;22.50
15607;BMP180;7865;50.918;4.510;2023-08-21T07:11:02;101818.00;;;22.70
15607;BMP180;7865;50.918;4.510;2023-08-21T07:16:05;101820.00;;;22.80
15607;BMP180;7865;50.918;4.510;2023-08-21T07:21:07;101815.00;;;23.60
15607;BMP180;7865;50.918;4.510;2023-08-21T07:26:23;101819.00;;;23.90
15607;BMP180;7865;50.918;4.510;2023-08-21T07:31:24;101825.00;;;23.20
15607;BMP180;7865;50.918;4.510;2023-08-21T07:36:42;101836.00;;;23.00
15607;BMP180;7865;50.918;4.510;2023-08-21T07:41:44;101836.00;;;23.30
15607;BMP180;7865;50.918;4.510;2023-08-21T07:46:45;101832.00;;;23.70
15607;BMP180;7865;50.918;4.510;2023-08-21T07:51:46;101842.00;;;24.20
15607;BMP180;7865;50.918;4.510;2023-08-21T07:56:47;101843.00;;;24.60
15607;BMP180;7865;50.918;4.510;2023-08-21T08:01:49;101842.00;;;25.30
15607;BMP180;7865;50.918;4.510;2023-08-21T08:06:51;101839.00;;;25.80
15607;BMP180;7865;50.918;4.510;2023-08-21T08:11:52;101848.00;;;25.70
15607;BMP180;7865;50.918;4.510;2023-08-21T08:16:53;101854.00;;;25.00
15607;BMP180;7865;50.918;4.510;2023-08-21T08:21:55;101861.00;;;26.00
15607;BMP180;7865;50.918;4.510;2023-08-21T08:26:57;101855.00;;;25.90
15607;BMP180;7865;50.918;4.510;2023-08-21T08:31:58;101853.00;;;26.10
15607;BMP180;7865;50.918;4.510;2023-08-21T08:37:00;101846.00;;;26.50
15607;BMP180;7865;50.918;4.510;2023-08-21T08:42:06;101849.00;;;27.20
15607;BMP180;7865;50.918;4.510;2023-08-21T08:47:08;101859.00;;;27.40
15607;BMP180;7865;50.918;4.510;2023-08-21T08:52:09;101861.00;;;27.90
15607;BMP180;7865;50.918;4.510;2023-08-21T08:57:11;101856.00;;;28.10
15607;BMP180;7865;50.918;4.510;2023-08-21T09:02:13;101846.00;;;28.50
15607;BMP180;7865;50.918;4.510;2023-08-21T09:07:17;101848.00;;;28.80
15607;BMP180;7865;50.918;4.510;2023-08-21T09:12:20;101843.00;;;27.90
15607;BMP180;7865;50.918;4.510;2023-08-21T09:17:21;101826.00;;;28.50
15607;BMP180;7865;50.918;4.510;2023-08-21T09:22:24;101834.00;;;28.60
15607;BMP180;7865;50.918;4.510;2023-08-21T09:27:26;101834.00;;;28.80
15607;BMP180;7865;50.918;4.510;2023-08-21T09:32:27;101833.00;;;29.20
15607;BMP180;7865;50.918;4.510;2023-08-21T09:37:28;101830.00;;;29.60
15607;BMP180;7865;50.918;4.510;2023-08-21T09:42:30;101829.00;;;29.50
15607;BMP180;7865;50.918;4.510;2023-08-21T09:47:32;101828.00;;;29.70
15607;BMP180;7865;50.918;4.510;2023-08-21T09:52:35;101824.00;;;29.70
15607;BMP180;7865;50.918;4.510;2023-08-21T09:57:58;101828.00;;;30.30
15607;BMP180;7865;50.918;4.510;2023-08-21T10:03:04;101827.00;;;30.70
15607;BMP180;7865;50.918;4.510;2023-08-21T10:08:07;101830.00;;;30.90
15607;BMP180;7865;50.918;4.510;2023-08-21T10:13:10;101827.00;;;30.90
15607;BMP180;7865;50.918;4.510;2023-08-21T10:18:22;101816.00;;;30.90
15607;BMP180;7865;50.918;4.510;2023-08-21T10:23:29;101832.00;;;30.50
15607;BMP180;7865;50.918;4.510;2023-08-21T10:28:49;101834.00;;;30.80
15607;BMP180;7865;50.918;4.510;2023-08-21T10:33:51;101822.00;;;30.90
15607;BMP180;7865;50.918;4.510;2023-08-21T10:38:59;101828.00;;;31.50
15607;BMP180;7865;50.918;4.510;2023-08-21T10:44:00;101823.00;;;32.10
15607;BMP180;7865;50.918;4.510;2023-08-21T10:49:01;101824.00;;;31.20
15607;BMP180;7865;50.918;4.510;2023-08-21T10:54:11;101823.00;;;31.60
15607;BMP180;7865;50.918;4.510;2023-08-21T10:59:14;101820.00;;;31.60
15607;BMP180;7865;50.918;4.510;2023-08-21T11:04:15;101827.00;;;32.40
15607;BMP180;7865;50.918;4.510;2023-08-21T11:09:16;101817.00;;;33.30
15607;BMP180;7865;50.918;4.510;2023-08-21T11:14:18;101809.00;;;33.50
15607;BMP180;7865;50.918;4.510;2023-08-21T11:19:26;101810.00;;;33.10
15607;BMP180;7865;50.918;4.510;2023-08-21T11:29:49;101815.00;;;32.90
15607;BMP180;7865;50.918;4.510;2023-08-21T11:34:56;101815.00;;;32.80
15607;BMP180;7865;50.918;4.510;2023-08-21T11:39:58;101808.00;;;32.70
15607;BMP180;7865;50.918;4.510;2023-08-21T11:45:01;101798.00;;;32.60
15607;BMP180;7865;50.918;4.510;2023-08-21T11:50:07;101809.00;;;31.40
15607;BMP180;7865;50.918;4.510;2023-08-21T11:55:10;101807.00;;;32.30
15607;BMP180;7865;50.918;4.510;2023-08-21T12:00:14;101793.00;;;33.30
15607;BMP180;7865;50.918;4.510;2023-08-21T12:05:19;101793.00;;;33.80
15607;BMP180;7865;50.918;4.510;2023-08-21T12:10:29;101791.00;;;33.50
15607;BMP180;7865;50.918;4.510;2023-08-21T12:15:30;101789.00;;;33.10
15607;BMP180;7865;50.918;4.510;2023-08-21T12:20:31;101786.00;;;33.00
15607;BMP180;7865;50.918;4.510;2023-08-21T12:25:33;101786.00;;;33.20
15607;BMP180;7865;50.918;4.510;2023-08-21T12:30:35;101794.00;;;33.30
15607;BMP180;7865;50.918;4.510;2023-08-21T12:35:36;101785.00;;;33.70
15607;BMP180;7865;50.918;4.510;2023-08-21T12:40:38;101787.00;;;32.80
15607;BMP180;7865;50.918;4.510;2023-08-21T12:45:40;101780.00;;;33.20
15607;BMP180;7865;50.918;4.510;2023-08-21T12:50:41;101777.00;;;32.80
15607;BMP180;7865;50.918;4.510;2023-08-21T12:55:43;101778.00;;;32.50
15607;BMP180;7865;50.918;4.510;2023-08-21T13:00:44;101766.00;;;32.00
15607;BMP180;7865;50.918;4.510;2023-08-21T13:05:45;101772.00;;;32.00
15607;BMP180;7865;50.918;4.510;2023-08-21T13:10:47;101769.00;;;31.60
15607;BMP180;7865;50.918;4.510;2023-08-21T13:15:48;101770.00;;;31.30
15607;BMP180;7865;50.918;4.510;2023-08-21T13:20:49;101765.00;;;30.90
15607;BMP180;7865;50.918;4.510;2023-08-21T13:25:51;101759.00;;;31.40
15607;BMP180;7865;50.918;4.510;2023-08-21T13:30:52;101765.00;;;32.00
15607;BMP180;7865;50.918;4.510;2023-08-21T13:35:56;101757.00;;;31.90
15607;BMP180;7865;50.918;4.510;2023-08-21T13:40:58;101768.00;;;31.30
15607;BMP180;7865;50.918;4.510;2023-08-21T13:46:03;101769.00;;;31.50
15607;BMP180;7865;50.918;4.510;2023-08-21T13:51:07;101761.00;;;30.80
15607;BMP180;7865;50.918;4.510;2023-08-21T13:56:08;101769.00;;;29.10
15607;BMP180;7865;50.918;4.510;2023-08-21T14:01:10;101740.00;;;29.30
15607;BMP180;7865;50.918;4.510;2023-08-21T14:06:11;101732.00;;;30.40
15607;BMP180;7865;50.918;4.510;2023-08-21T14:11:12;101729.00;;;30.50
15607;BMP180;7865;50.918;4.510;2023-08-21T14:16:14;101723.00;;;31.70
15607;BMP180;7865;50.918;4.510;2023-08-21T14:21:15;101705.00;;;32.60
15607;BMP180;7865;50.918;4.510;2023-08-21T14:26:17;101689.00;;;34.50
15607;BMP180;7865;50.918;4.510;2023-08-21T14:31:18;101701.00;;;33.10
15607;BMP180;7865;50.918;4.510;2023-08-21T14:36:19;101685.00;;;34.20
15607;BMP180;7865;50.918;4.510;2023-08-21T14:41:21;101679.00;;;36.00
15607;BMP180;7865;50.918;4.510;2023-08-21T14:46:23;101672.00;;;36.70
15607;BMP180;7865;50.918;4.510;2023-08-21T14:51:43;101666.00;;;36.90
15607;BMP180;7865;50.918;4.510;2023-08-21T14:56:44;101696.00;;;32.30
15607;BMP180;7865;50.918;4.510;2023-08-21T15:01:46;101683.00;;;29.10
15607;BMP180;7865;50.918;4.510;2023-08-21T15:06:47;101675.00;;;29.00
15607;BMP180;7865;50.918;4.510;2023-08-21T15:11:48;101674.00;;;28.30
15607;BMP180;7865;50.918;4.510;2023-08-21T15:16:50;101668.00;;;27.60
15607;BMP180;7865;50.918;4.510;2023-08-21T15:21:53;101669.00;;;27.20
15607;BMP180;7865;50.918;4.510;2023-08-21T15:26:54;101663.00;;;27.00
15607;BMP180;7865;50.918;4.510;2023-08-21T15:31:55;101656.00;;;26.80
15607;BMP180;7865;50.918;4.510;2023-08-21T15:36:58;101648.00;;;26.70
15607;BMP180;7865;50.918;4.510;2023-08-21T15:41:59;101639.00;;;26.70
15607;BMP180;7865;50.918;4.510;2023-08-21T15:47:00;101633.00;;;26.90
15607;BMP180;7865;50.918;4.510;2023-08-21T15:52:22;101636.00;;;26.80
15607;BMP180;7865;50.918;4.510;2023-08-21T15:57:23;101633.00;;;26.50
15607;BMP180;7865;50.918;4.510;2023-08-21T16:02:25;101626.00;;;26.30
15607;BMP180;7865;50.918;4.510;2023-08-21T16:07:27;101623.00;;;26.30
15607;BMP180;7865;50.918;4.510;2023-08-21T16:12:28;101612.00;;;26.20
15607;BMP180;7865;50.918;4.510;2023-08-21T16:17:30;101605.00;;;26.10
15607;BMP180;7865;50.918;4.510;2023-08-21T16:22:31;101612.00;;;26.10
15607;BMP180;7865;50.918;4.510;2023-08-21T16:27:33;101602.00;;;26.00
15607;BMP180;7865;50.918;4.510;2023-08-21T16:32:34;101592.00;;;25.90
15607;BMP180;7865;50.918;4.510;2023-08-21T16:37:36;101589.00;;;25.70
15607;BMP180;7865;50.918;4.510;2023-08-21T16:42:38;101597.00;;;25.70
15607;BMP180;7865;50.918;4.510;2023-08-21T16:47:40;101597.00;;;25.70
15607;BMP180;7865;50.918;4.510;2023-08-21T16:52:42;101601.00;;;25.70
15607;BMP180;7865;50.918;4.510;2023-08-21T16:57:43;101591.00;;;25.70
15607;BMP180;7865;50.918;4.510;2023-08-21T17:02:44;101598.00;;;25.60
15607;BMP180;7865;50.918;4.510;2023-08-21T17:07:46;101592.00;;;25.50
15607;BMP180;7865;50.918;4.510;2023-08-21T17:12:47;101585.00;;;25.50
15607;BMP180;7865;50.918;4.510;2023-08-21T17:17:48;101592.00;;;25.40
15607;BMP180;7865;50.918;4.510;2023-08-21T17:22:49;101597.00;;;25.40
15607;BMP180;7865;50.918;4.510;2023-08-21T17:27:51;101594.00;;;25.30
15607;BMP180;7865;50.918;4.510;2023-08-21T17:32:53;101588.00;;;25.20
15607;BMP180;7865;50.918;4.510;2023-08-21T17:37:55;101592.00;;;25.00
15607;BMP180;7865;50.918;4.510;2023-08-21T17:42:56;101586.00;;;24.90
15607;BMP180;7865;50.918;4.510;2023-08-21T17:47:57;101590.00;;;24.90
15607;BMP180;7865;50.918;4.510;2023-08-21T17:52:59;101585.00;;;24.80
15607;BMP180;7865;50.918;4.510;2023-08-21T17:58:04;101582.00;;;24.60
15607;BMP180;7865;50.918;4.510;2023-08-21T18:03:06;101583.00;;;24.50
15607;BMP180;7865;50.918;4.510;2023-08-21T18:08:07;101589.00;;;24.40
15607;BMP180;7865;50.918;4.510;2023-08-21T18:13:08;101588.00;;;24.20
15607;BMP180;7865;50.918;4.510;2023-08-21T18:18:09;101590.00;;;24.00
15607;BMP180;7865;50.918;4.510;2023-08-21T18:23:11;101582.00;;;23.70
15607;BMP180;7865;50.918;4.510;2023-08-21T18:28:12;101585.00;;;23.40
15607;BMP180;7865;50.918;4.510;2023-08-21T18:33:14;101582.00;;;23.10
15607;BMP180;7865;50.918;4.510;2023-08-21T18:38:15;101586.00;;;22.80
15607;BMP180;7865;50.918;4.510;2023-08-21T18:43:20;101581.00;;;22.50
15607;BMP180;7865;50.918;4.510;2023-08-21T18:48:21;101582.00;;;22.30
15607;BMP180;7865;50.918;4.510;2023-08-21T18:53:23;101592.00;;;22.00
15607;BMP180;7865;50.918;4.510;2023-08-21T18:58:24;101600.00;;;21.90
15607;BMP180;7865;50.918;4.510;2023-08-21T19:03:26;101602.00;;;21.70
15607;BMP180;7865;50.918;4.510;2023-08-21T19:08:27;101607.00;;;21.50
15607;BMP180;7865;50.918;4.510;2023-08-21T19:13:28;101619.00;;;21.40
15607;BMP180;7865;50.918;4.510;2023-08-21T19:18:30;101626.00;;;21.40
15607;BMP180;7865;50.918;4.510;2023-08-21T19:23:31;101641.00;;;21.30
15607;BMP180;7865;50.918;4.510;2023-08-21T19:28:32;101639.00;;;21.20
15607;BMP180;7865;50.918;4.510;2023-08-21T19:33:34;101635.00;;;21.20
15607;BMP180;7865;50.918;4.510;2023-08-21T19:38:35;101651.00;;;21.10
15607;BMP180;7865;50.918;4.510;2023-08-21T19:43:36;101656.00;;;21.10
15607;BMP180;7865;50.918;4.510;2023-08-21T19:48:38;101658.00;;;21.00
15607;BMP180;7865;50.918;4.510;2023-08-21T19:53:39;101666.00;;;20.90
15607;BMP180;7865;50.918;4.510;2023-08-21T19:58:40;101666.00;;;20.80
15607;BMP180;7865;50.918;4.510;2023-08-21T20:03:42;101670.00;;;20.70
15607;BMP180;7865;50.918;4.510;2023-08-21T20:08:43;101673.00;;;20.60
15607;BMP180;7865;50.918;4.510;2023-08-21T20:13:45;101681.00;;;20.50
15607;BMP180;7865;50.918;4.510;2023-08-21T20:18:46;101672.00;;;20.40
15607;BMP180;7865;50.918;4.510;2023-08-21T20:23:47;101675.00;;;20.30
15607;BMP180;7865;50.918;4.510;2023-08-21T20:28:49;101666.00;;;20.20
15607;BMP180;7865;50.918;4.510;2023-08-21T20:33:50;101672.00;;;20.00
15607;BMP180;7865;50.918;4.510;2023-08-21T20:38:51;101674.00;;;19.90
15607;BMP180;7865;50.918;4.510;2023-08-21T20:43:52;101679.00;;;19.70
15607;BMP180;7865;50.918;4.510;2023-08-21T20:48:54;101668.00;;;19.60
15607;BMP180;7865;50.918;4.510;2023-08-21T20:53:56;101662.00;;;19.40
15607;BMP180;7865;50.918;4.510;2023-08-21T20:58:57;101657.00;;;19.40
15607;BMP180;7865;50.918;4.510;2023-08-21T21:03:58;101660.00;;;19.30
15607;BMP180;7865;50.918;4.510;2023-08-21T21:09:00;101648.00;;;19.30
15607;BMP180;7865;50.918;4.510;2023-08-21T21:14:02;101663.00;;;19.30
15607;BMP180;7865;50.918;4.510;2023-08-21T21:19:04;101668.00;;;19.20
15607;BMP180;7865;50.918;4.510;2023-08-21T21:24:05;101661.00;;;19.10
15607;BMP180;7865;50.918;4.510;2023-08-21T21:29:07;101677.00;;;19.10
15607;BMP180;7865;50.918;4.510;2023-08-21T21:34:09;101675.00;;;19.00
15607;BMP180;7865;50.918;4.510;2023-08-21T21:39:11;101675.00;;;18.90
15607;BMP180;7865;50.918;4.510;2023-08-21T21:44:14;101671.00;;;18.90
15607;BMP180;7865;50.918;4.510;2023-08-21T21:49:15;101677.00;;;18.90
15607;BMP180;7865;50.918;4.510;2023-08-21T21:54:16;101681.00;;;18.80
15607;BMP180;7865;50.918;4.510;2023-08-21T21:59:18;101695.00;;;18.70
15607;BMP180;7865;50.918;4.510;2023-08-21T22:04:19;101686.00;;;18.70
15607;BMP180;7865;50.918;4.510;2023-08-21T22:09:20;101688.00;;;18.60
15607;BMP180;7865;50.918;4.510;2023-08-21T22:14:21;101690.00;;;18.60
15607;BMP180;7865;50.918;4.510;2023-08-21T22:19:23;101686.00;;;18.60
15607;BMP180;7865;50.918;4.510;2023-08-21T22:24:24;101683.00;;;18.50
15607;BMP180;7865;50.918;4.510;2023-08-21T22:29:26;101682.00;;;18.40
15607;BMP180;7865;50.918;4.510;2023-08-21T22:34:27;101683.00;;;18.30
15607;BMP180;7865;50.918;4.510;2023-08-21T22:39:28;101689.00;;;18.30
15607;BMP180;7865;50.918;4.510;2023-08-21T22:44:30;101682.00;;;18.20
15607;BMP180;7865;50.918;4.510;2023-08-21T22:49:31;101685.00;;;18.10
15607;BMP180;7865;50.918;4.510;2023-08-21T22:54:33;101687.00;;;18.10
15607;BMP180;7865;50.918;4.510;2023-08-21T22:59:35;101693.00;;;18.00
15607;BMP180;7865;50.918;4.510;2023-08-21T23:04:36;101687.00;;;17.90
15607;BMP180;7865;50.918;4.510;2023-08-21T23:09:38;101687.00;;;17.80
15607;BMP180;7865;50.918;4.510;2023-08-21T23:14:39;101684.00;;;17.70
15607;BMP180;7865;50.918;4.510;2023-08-21T23:19:40;101692.00;;;17.70
15607;BMP180;7865;50.918;4.510;2023-08-21T23:24:42;101682.00;;;17.60
15607;BMP180;7865;50.918;4.510;2023-08-21T23:29:43;101677.00;;;17.50
15607;BMP180;7865;50.918;4.510;2023-08-21T23:34:44;101664.00;;;17.40
15607;BMP180;7865;50.918;4.510;2023-08-21T23:39:46;101658.00;;;17.30
15607;BMP180;7865;50.918;4.510;2023-08-21T23:44:47;101653.00;;;17.30
15607;BMP180;7865;50.918;4.510;2023-08-21T23:49:48;101651.00;;;17.20
15607;BMP180;7865;50.918;4.510;2023-08-21T23:54:50;101649.00;;;17.20
15607;BMP180;7865;50.918;4.510;2023-08-21T23:59:51;101648.00;;;17.10
